sensor_id;sensor_type;location;lat;lon;timestamp;temperature;humidity
48836;DHT22;62581;47.342;7.908;2022-10-31T00:01:50;12.60;99.90
48836;DHT22;62581;47.342;7.908;2022-10-31T00:04:17;12.50;99.90
48836;DHT22;62581;47.342;7.908;2022-10-31T00:06:43;12.60;99.90
48836;DHT22;62581;47.342;7.908;2022-10-31T00:09:10;12.50;99.90
48836;DHT22;62581;47.342;7.908;2022-10-31T00:11:39;12.50;99.90
48836;DHT22;62581;47.342;7.908;2022-10-31T00:14:06;12.50;99.90
48836;DHT22;62581;47.342;7.908;2022-10-31T00:16:32;12.50;99.90
48836;DHT22;62581;47.342;7.908;2022-10-31T00:19:00;12.50;99.90
48836;DHT22;62581;47.342;7.908;2022-10-31T00:21:28;12.40;99.90
48836;DHT22;62581;47.342;7.908;2022-10-31T00:23:55;12.40;99.90
48836;DHT22;62581;47.342;7.908;2022-10-31T00:26:21;12.50;99.90
48836;DHT22;62581;47.342;7.908;2022-10-31T00:28:49;12.50;99.90
48836;DHT22;62581;47.342;7.908;2022-10-31T00:31:17;12.40;99.90
48836;DHT22;62581;47.342;7.908;2022-10-31T00:33:44;12.40;99.90
48836;DHT22;62581;47.342;7.908;2022-10-31T00:36:11;12.40;99.90
48836;DHT22;62581;47.342;7.908;2022-10-31T00:38:38;12.40;99.90
48836;DHT22;62581;47.342;7.908;2022-10-31T00:41:05;12.40;99.90
48836;DHT22;62581;47.342;7.908;2022-10-31T00:43:32;12.30;99.90
48836;DHT22;62581;47.342;7.908;2022-10-31T00:46:00;12.30;99.90
48836;DHT22;62581;47.342;7.908;2022-10-31T00:48:27;12.30;99.90
48836;DHT22;62581;47.342;7.908;2022-10-31T00:50:54;12.30;99.90
48836;DHT22;62581;47.342;7.908;2022-10-31T00:53:21;12.30;99.90
48836;DHT22;62581;47.342;7.908;2022-10-31T00:55:47;12.40;99.90
48836;DHT22;62581;47.342;7.908;2022-10-31T00:58:14;12.30;99.90
48836;DHT22;62581;47.342;7.908;2022-10-31T01:00:41;12.40;99.90
48836;DHT22;62581;47.342;7.908;2022-10-31T01:03:09;12.40;99.90
48836;DHT22;62581;47.342;7.908;2022-10-31T01:05:36;12.40;99.90
48836;DHT22;62581;47.342;7.908;2022-10-31T01:08:03;12.40;99.90
48836;DHT22;62581;47.342;7.908;2022-10-31T01:10:29;12.40;99.90
48836;DHT22;62581;47.342;7.908;2022-10-31T01:12:56;12.30;99.90
48836;DHT22;62581;47.342;7.908;2022-10-31T01:15:23;12.30;99.90
48836;DHT22;62581;47.342;7.908;2022-10-31T01:17:50;12.30;99.90
48836;DHT22;62581;47.342;7.908;2022-10-31T01:20:18;12.30;99.90
48836;DHT22;62581;47.342;7.908;2022-10-31T01:22:45;12.30;99.90
48836;DHT22;62581;47.342;7.908;2022-10-31T01:25:12;12.30;99.90
48836;DHT22;62581;47.342;7.908;2022-10-31T01:27:38;12.30;99.90
48836;DHT22;62581;47.342;7.908;2022-10-31T01:30:06;12.30;99.90
48836;DHT22;62581;47.342;7.908;2022-10-31T01:32:32;12.30;99.90
48836;DHT22;62581;47.342;7.908;2022-10-31T01:34:59;12.30;99.90
48836;DHT22;62581;47.342;7.908;2022-10-31T01:37:27;12.30;99.90
48836;DHT22;62581;47.342;7.908;2022-10-31T01:39:54;12.30;99.90
48836;DHT22;62581;47.342;7.908;2022-10-31T01:42:21;12.30;99.90
48836;DHT22;62581;47.342;7.908;2022-10-31T01:44:53;12.30;99.90
48836;DHT22;62581;47.342;7.908;2022-10-31T01:47:22;12.30;99.90
48836;DHT22;62581;47.342;7.908;2022-10-31T01:49:52;12.20;99.90
48836;DHT22;62581;47.342;7.908;2022-10-31T01:52:20;12.20;99.90
48836;DHT22;62581;47.342;7.908;2022-10-31T01:54:50;12.20;99.90
48836;DHT22;62581;47.342;7.908;2022-10-31T01:57:17;12.20;99.90
48836;DHT22;62581;47.342;7.908;2022-10-31T01:59:45;12.20;99.90
48836;DHT22;62581;47.342;7.908;2022-10-31T02:02:13;12.30;99.90
48836;DHT22;62581;47.342;7.908;2022-10-31T02:04:41;12.30;99.90
48836;DHT22;62581;47.342;7.908;2022-10-31T02:07:09;12.30;99.90
48836;DHT22;62581;47.342;7.908;2022-10-31T02:09:37;12.40;99.90
48836;DHT22;62581;47.342;7.908;2022-10-31T02:12:06;12.30;99.90
48836;DHT22;62581;47.342;7.908;2022-10-31T02:14:33;12.30;99.90
48836;DHT22;62581;47.342;7.908;2022-10-31T02:17:00;12.10;99.90
48836;DHT22;62581;47.342;7.908;2022-10-31T02:19:28;11.90;99.90
48836;DHT22;62581;47.342;7.908;2022-10-31T02:21:58;11.80;99.90
48836;DHT22;62581;47.342;7.908;2022-10-31T02:24:37;11.70;99.90
48836;DHT22;62581;47.342;7.908;2022-10-31T02:27:12;11.60;99.90
48836;DHT22;62581;47.342;7.908;2022-10-31T02:30:03;11.60;99.90
48836;DHT22;62581;47.342;7.908;2022-10-31T02:32:34;11.60;99.90
48836;DHT22;62581;47.342;7.908;2022-10-31T02:35:07;11.60;99.90
48836;DHT22;62581;47.342;7.908;2022-10-31T02:37:36;11.60;99.90
48836;DHT22;62581;47.342;7.908;2022-10-31T02:40:05;11.60;99.90
48836;DHT22;62581;47.342;7.908;2022-10-31T02:42:39;11.50;99.90
48836;DHT22;62581;47.342;7.908;2022-10-31T02:45:07;11.60;99.90
48836;DHT22;62581;47.342;7.908;2022-10-31T02:47:39;11.50;99.90
48836;DHT22;62581;47.342;7.908;2022-10-31T02:50:08;11.60;99.90
48836;DHT22;62581;47.342;7.908;2022-10-31T02:52:37;11.60;99.90
48836;DHT22;62581;47.342;7.908;2022-10-31T02:55:11;11.60;99.90
48836;DHT22;62581;47.342;7.908;2022-10-31T02:57:38;11.60;99.90
48836;DHT22;62581;47.342;7.908;2022-10-31T03:00:07;11.60;99.90
48836;DHT22;62581;47.342;7.908;2022-10-31T03:02:47;11.60;99.90
48836;DHT22;62581;47.342;7.908;2022-10-31T03:05:22;11.60;99.90
48836;DHT22;62581;47.342;7.908;2022-10-31T03:07:51;11.60;99.90
48836;DHT22;62581;47.342;7.908;2022-10-31T03:10:23;11.50;99.90
48836;DHT22;62581;47.342;7.908;2022-10-31T03:12:54;11.50;99.90
48836;DHT22;62581;47.342;7.908;2022-10-31T03:15:26;11.50;99.90
48836;DHT22;62581;47.342;7.908;2022-10-31T03:17:57;11.60;99.90
48836;DHT22;62581;47.342;7.908;2022-10-31T03:20:27;11.60;99.90
48836;DHT22;62581;47.342;7.908;2022-10-31T03:22:54;11.60;99.90
48836;DHT22;62581;47.342;7.908;2022-10-31T03:25:21;11.60;99.90
48836;DHT22;62581;47.342;7.908;2022-10-31T03:27:48;11.60;99.90
48836;DHT22;62581;47.342;7.908;2022-10-31T03:30:15;11.40;99.90
48836;DHT22;62581;47.342;7.908;2022-10-31T03:32:43;11.40;99.90
48836;DHT22;62581;47.342;7.908;2022-10-31T03:35:12;11.50;99.90
48836;DHT22;62581;47.342;7.908;2022-10-31T03:37:40;11.50;99.90
48836;DHT22;62581;47.342;7.908;2022-10-31T03:40:08;11.60;99.90
48836;DHT22;62581;47.342;7.908;2022-10-31T03:42:37;11.60;99.90
48836;DHT22;62581;47.342;7.908;2022-10-31T03:45:06;11.70;99.90
48836;DHT22;62581;47.342;7.908;2022-10-31T03:47:35;11.70;99.90
48836;DHT22;62581;47.342;7.908;2022-10-31T03:50:03;11.70;99.90
48836;DHT22;62581;47.342;7.908;2022-10-31T03:52:33;11.70;99.90
48836;DHT22;62581;47.342;7.908;2022-10-31T03:55:04;11.60;99.90
48836;DHT22;62581;47.342;7.908;2022-10-31T03:57:34;11.60;99.90
48836;DHT22;62581;47.342;7.908;2022-10-31T04:00:04;11.60;99.90
48836;DHT22;62581;47.342;7.908;2022-10-31T04:02:32;11.60;99.90
48836;DHT22;62581;47.342;7.908;2022-10-31T04:04:59;11.70;99.90
48836;DHT22;62581;47.342;7.908;2022-10-31T04:07:27;11.70;99.90
48836;DHT22;62581;47.342;7.908;2022-10-31T04:09:56;11.70;99.90
48836;DHT22;62581;47.342;7.908;2022-10-31T04:12:24;11.70;99.90
48836;DHT22;62581;47.342;7.908;2022-10-31T04:14:51;11.70;99.90
48836;DHT22;62581;47.342;7.908;2022-10-31T04:17:20;11.60;99.90
48836;DHT22;62581;47.342;7.908;2022-10-31T04:19:48;11.60;99.90
48836;DHT22;62581;47.342;7.908;2022-10-31T04:22:15;11.60;99.90
48836;DHT22;62581;47.342;7.908;2022-10-31T04:24:41;11.50;99.90
48836;DHT22;62581;47.342;7.908;2022-10-31T04:27:09;11.50;99.90
48836;DHT22;62581;47.342;7.908;2022-10-31T04:29:37;11.60;99.90
48836;DHT22;62581;47.342;7.908;2022-10-31T04:32:04;11.60;99.90
48836;DHT22;62581;47.342;7.908;2022-10-31T04:34:31;11.60;99.90
48836;DHT22;62581;47.342;7.908;2022-10-31T04:36:57;11.70;99.90
48836;DHT22;62581;47.342;7.908;2022-10-31T04:39:24;11.70;99.90
48836;DHT22;62581;47.342;7.908;2022-10-31T04:41:51;11.70;99.90
48836;DHT22;62581;47.342;7.908;2022-10-31T04:44:19;11.70;99.90
48836;DHT22;62581;47.342;7.908;2022-10-31T04:46:46;11.80;99.90
48836;DHT22;62581;47.342;7.908;2022-10-31T04:49:13;11.80;99.90
48836;DHT22;62581;47.342;7.908;2022-10-31T04:51:40;11.80;99.90
48836;DHT22;62581;47.342;7.908;2022-10-31T04:54:07;11.80;99.90
48836;DHT22;62581;47.342;7.908;2022-10-31T04:56:33;11.80;99.90
48836;DHT22;62581;47.342;7.908;2022-10-31T04:59:00;11.70;99.90
48836;DHT22;62581;47.342;7.908;2022-10-31T05:01:28;11.70;99.90
48836;DHT22;62581;47.342;7.908;2022-10-31T05:03:55;11.70;99.90
48836;DHT22;62581;47.342;7.908;2022-10-31T05:06:22;11.70;99.90
48836;DHT22;62581;47.342;7.908;2022-10-31T05:08:49;11.70;99.90
48836;DHT22;62581;47.342;7.908;2022-10-31T05:11:15;11.70;99.90
48836;DHT22;62581;47.342;7.908;2022-10-31T05:13:42;11.70;99.90
48836;DHT22;62581;47.342;7.908;2022-10-31T05:16:09;11.70;99.90
48836;DHT22;62581;47.342;7.908;2022-10-31T05:18:38;11.70;99.90
48836;DHT22;62581;47.342;7.908;2022-10-31T05:21:04;11.60;99.90
48836;DHT22;62581;47.342;7.908;2022-10-31T05:23:31;11.50;99.90
48836;DHT22;62581;47.342;7.908;2022-10-31T05:25:58;11.40;99.90
48836;DHT22;62581;47.342;7.908;2022-10-31T05:28:24;11.30;99.90
48836;DHT22;62581;47.342;7.908;2022-10-31T05:30:51;11.20;99.90
48836;DHT22;62581;47.342;7.908;2022-10-31T05:33:18;11.20;99.90
48836;DHT22;62581;47.342;7.908;2022-10-31T05:35:46;11.10;99.90
48836;DHT22;62581;47.342;7.908;2022-10-31T05:38:13;11.10;99.90
48836;DHT22;62581;47.342;7.908;2022-10-31T05:40:39;11.10;99.90
48836;DHT22;62581;47.342;7.908;2022-10-31T05:43:06;11.10;99.90
48836;DHT22;62581;47.342;7.908;2022-10-31T05:45:33;11.00;99.90
48836;DHT22;62581;47.342;7.908;2022-10-31T05:48:00;11.00;99.90
48836;DHT22;62581;47.342;7.908;2022-10-31T05:50:28;11.00;99.90
48836;DHT22;62581;47.342;7.908;2022-10-31T05:52:57;11.00;99.90
48836;DHT22;62581;47.342;7.908;2022-10-31T05:55:24;11.10;99.90
48836;DHT22;62581;47.342;7.908;2022-10-31T05:57:51;11.10;99.90
48836;DHT22;62581;47.342;7.908;2022-10-31T06:00:18;11.20;99.90
48836;DHT22;62581;47.342;7.908;2022-10-31T06:02:45;11.20;99.90
48836;DHT22;62581;47.342;7.908;2022-10-31T06:05:12;11.20;99.90
48836;DHT22;62581;47.342;7.908;2022-10-31T06:07:39;11.20;99.90
48836;DHT22;62581;47.342;7.908;2022-10-31T06:10:07;11.20;99.90
48836;DHT22;62581;47.342;7.908;2022-10-31T06:12:34;11.20;99.90
48836;DHT22;62581;47.342;7.908;2022-10-31T06:15:03;11.20;99.90
48836;DHT22;62581;47.342;7.908;2022-10-31T06:17:30;11.20;99.90
48836;DHT22;62581;47.342;7.908;2022-10-31T06:19:57;11.10;99.90
48836;DHT22;62581;47.342;7.908;2022-10-31T06:22:23;11.10;99.90
48836;DHT22;62581;47.342;7.908;2022-10-31T06:24:50;11.10;99.90
48836;DHT22;62581;47.342;7.908;2022-10-31T06:27:18;11.10;99.90
48836;DHT22;62581;47.342;7.908;2022-10-31T06:29:45;11.10;99.90
48836;DHT22;62581;47.342;7.908;2022-10-31T06:32:12;11.10;99.90
48836;DHT22;62581;47.342;7.908;2022-10-31T06:34:39;11.10;99.90
48836;DHT22;62581;47.342;7.908;2022-10-31T06:37:06;11.10;99.90
48836;DHT22;62581;47.342;7.908;2022-10-31T06:39:33;11.20;99.90
48836;DHT22;62581;47.342;7.908;2022-10-31T06:42:00;11.20;99.90
48836;DHT22;62581;47.342;7.908;2022-10-31T06:44:29;11.20;99.90
48836;DHT22;62581;47.342;7.908;2022-10-31T06:46:55;11.20;99.90
48836;DHT22;62581;47.342;7.908;2022-10-31T06:49:22;11.20;99.90
48836;DHT22;62581;47.342;7.908;2022-10-31T06:51:49;11.20;99.90
48836;DHT22;62581;47.342;7.908;2022-10-31T06:54:16;11.20;99.90
48836;DHT22;62581;47.342;7.908;2022-10-31T06:56:45;11.20;99.90
48836;DHT22;62581;47.342;7.908;2022-10-31T06:59:12;11.30;99.90
48836;DHT22;62581;47.342;7.908;2022-10-31T07:01:40;11.30;99.90
48836;DHT22;62581;47.342;7.908;2022-10-31T07:04:07;11.40;99.90
48836;DHT22;62581;47.342;7.908;2022-10-31T07:06:34;11.30;99.90
48836;DHT22;62581;47.342;7.908;2022-10-31T07:09:01;11.30;99.90
48836;DHT22;62581;47.342;7.908;2022-10-31T07:11:28;11.30;99.90
48836;DHT22;62581;47.342;7.908;2022-10-31T07:13:55;11.30;99.90
48836;DHT22;62581;47.342;7.908;2022-10-31T07:16:22;11.40;99.90
48836;DHT22;62581;47.342;7.908;2022-10-31T07:18:50;11.40;99.90
48836;DHT22;62581;47.342;7.908;2022-10-31T07:21:17;11.40;99.90
48836;DHT22;62581;47.342;7.908;2022-10-31T07:23:46;11.50;99.90
48836;DHT22;62581;47.342;7.908;2022-10-31T07:26:13;11.60;99.90
48836;DHT22;62581;47.342;7.908;2022-10-31T07:28:40;11.60;99.90
48836;DHT22;62581;47.342;7.908;2022-10-31T07:31:07;11.60;99.90
48836;DHT22;62581;47.342;7.908;2022-10-31T07:33:33;11.70;99.90
48836;DHT22;62581;47.342;7.908;2022-10-31T07:36:02;11.70;99.90
48836;DHT22;62581;47.342;7.908;2022-10-31T07:38:29;11.70;99.90
48836;DHT22;62581;47.342;7.908;2022-10-31T07:40:55;11.80;99.90
48836;DHT22;62581;47.342;7.908;2022-10-31T07:43:22;11.80;99.90
48836;DHT22;62581;47.342;7.908;2022-10-31T07:45:50;11.70;99.90
48836;DHT22;62581;47.342;7.908;2022-10-31T07:48:17;11.70;99.90
48836;DHT22;62581;47.342;7.908;2022-10-31T07:50:44;11.80;99.90
48836;DHT22;62581;47.342;7.908;2022-10-31T07:53:13;11.90;99.90
48836;DHT22;62581;47.342;7.908;2022-10-31T07:55:40;11.90;99.90
48836;DHT22;62581;47.342;7.908;2022-10-31T07:58:07;11.90;99.90
48836;DHT22;62581;47.342;7.908;2022-10-31T08:00:35;11.90;99.90
48836;DHT22;62581;47.342;7.908;2022-10-31T08:03:02;12.00;99.90
48836;DHT22;62581;47.342;7.908;2022-10-31T08:05:30;12.10;99.90
48836;DHT22;62581;47.342;7.908;2022-10-31T08:07:57;12.10;99.90
48836;DHT22;62581;47.342;7.908;2022-10-31T08:10:26;12.00;99.90
48836;DHT22;62581;47.342;7.908;2022-10-31T08:12:56;12.00;99.90
48836;DHT22;62581;47.342;7.908;2022-10-31T08:15:24;12.00;99.90
48836;DHT22;62581;47.342;7.908;2022-10-31T08:17:50;12.10;99.90
48836;DHT22;62581;47.342;7.908;2022-10-31T08:20:17;12.10;99.90
48836;DHT22;62581;47.342;7.908;2022-10-31T08:22:52;12.10;99.90
48836;DHT22;62581;47.342;7.908;2022-10-31T08:25:18;12.10;99.90
48836;DHT22;62581;47.342;7.908;2022-10-31T08:27:49;12.10;99.90
48836;DHT22;62581;47.342;7.908;2022-10-31T08:30:16;12.20;99.90
48836;DHT22;62581;47.342;7.908;2022-10-31T08:32:43;12.20;99.90
48836;DHT22;62581;47.342;7.908;2022-10-31T08:35:10;12.30;99.90
48836;DHT22;62581;47.342;7.908;2022-10-31T08:37:37;12.40;99.90
48836;DHT22;62581;47.342;7.908;2022-10-31T08:40:04;12.40;99.90
48836;DHT22;62581;47.342;7.908;2022-10-31T08:42:31;12.50;99.90
48836;DHT22;62581;47.342;7.908;2022-10-31T08:45:00;12.50;99.90
48836;DHT22;62581;47.342;7.908;2022-10-31T08:47:27;12.60;99.90
48836;DHT22;62581;47.342;7.908;2022-10-31T08:49:54;12.60;99.90
48836;DHT22;62581;47.342;7.908;2022-10-31T08:52:22;12.70;99.90
48836;DHT22;62581;47.342;7.908;2022-10-31T08:54:48;12.80;99.90
48836;DHT22;62581;47.342;7.908;2022-10-31T08:57:15;12.90;99.90
48836;DHT22;62581;47.342;7.908;2022-10-31T08:59:42;13.00;99.90
48836;DHT22;62581;47.342;7.908;2022-10-31T09:02:10;13.00;99.90
48836;DHT22;62581;47.342;7.908;2022-10-31T09:04:37;13.10;99.90
48836;DHT22;62581;47.342;7.908;2022-10-31T09:07:04;13.20;99.90
48836;DHT22;62581;47.342;7.908;2022-10-31T09:09:31;13.30;99.90
48836;DHT22;62581;47.342;7.908;2022-10-31T09:11:57;13.30;99.90
48836;DHT22;62581;47.342;7.908;2022-10-31T09:14:25;13.30;99.90
48836;DHT22;62581;47.342;7.908;2022-10-31T09:16:52;13.40;99.90
48836;DHT22;62581;47.342;7.908;2022-10-31T09:19:20;13.40;99.90
48836;DHT22;62581;47.342;7.908;2022-10-31T09:21:47;13.40;99.90
48836;DHT22;62581;47.342;7.908;2022-10-31T09:24:14;13.50;99.90
48836;DHT22;62581;47.342;7.908;2022-10-31T09:26:41;13.50;99.90
48836;DHT22;62581;47.342;7.908;2022-10-31T09:29:07;13.60;99.90
48836;DHT22;62581;47.342;7.908;2022-10-31T09:31:35;13.60;99.90
48836;DHT22;62581;47.342;7.908;2022-10-31T09:34:01;13.70;99.90
48836;DHT22;62581;47.342;7.908;2022-10-31T09:36:30;13.80;99.90
48836;DHT22;62581;47.342;7.908;2022-10-31T09:38:56;13.70;99.90
48836;DHT22;62581;47.342;7.908;2022-10-31T09:41:24;13.80;99.90
48836;DHT22;62581;47.342;7.908;2022-10-31T09:43:56;13.80;99.90
48836;DHT22;62581;47.342;7.908;2022-10-31T09:46:29;13.80;99.90
48836;DHT22;62581;47.342;7.908;2022-10-31T09:49:11;13.80;99.90
48836;DHT22;62581;47.342;7.908;2022-10-31T09:51:48;13.80;99.90
48836;DHT22;62581;47.342;7.908;2022-10-31T09:54:16;13.70;99.90
48836;DHT22;62581;47.342;7.908;2022-10-31T09:56:44;13.80;99.90
48836;DHT22;62581;47.342;7.908;2022-10-31T09:59:17;13.80;99.90
48836;DHT22;62581;47.342;7.908;2022-10-31T10:01:47;13.80;99.90
48836;DHT22;62581;47.342;7.908;2022-10-31T10:04:24;13.90;99.90
48836;DHT22;62581;47.342;7.908;2022-10-31T10:06:55;13.90;99.90
48836;DHT22;62581;47.342;7.908;2022-10-31T10:09:25;14.00;99.90
48836;DHT22;62581;47.342;7.908;2022-10-31T10:11:54;14.10;99.90
48836;DHT22;62581;47.342;7.908;2022-10-31T10:14:40;14.20;99.90
48836;DHT22;62581;47.342;7.908;2022-10-31T10:17:18;14.30;99.90
48836;DHT22;62581;47.342;7.908;2022-10-31T10:20:01;14.40;99.90
48836;DHT22;62581;47.342;7.908;2022-10-31T10:22:35;14.40;99.90
48836;DHT22;62581;47.342;7.908;2022-10-31T10:25:09;14.50;99.90
48836;DHT22;62581;47.342;7.908;2022-10-31T10:27:42;14.50;99.90
48836;DHT22;62581;47.342;7.908;2022-10-31T10:30:13;14.50;99.90
48836;DHT22;62581;47.342;7.908;2022-10-31T10:32:42;14.60;99.90
48836;DHT22;62581;47.342;7.908;2022-10-31T10:35:11;14.60;99.90
48836;DHT22;62581;47.342;7.908;2022-10-31T10:37:42;14.70;99.90
48836;DHT22;62581;47.342;7.908;2022-10-31T10:40:11;14.80;99.90
48836;DHT22;62581;47.342;7.908;2022-10-31T10:42:40;14.90;99.90
48836;DHT22;62581;47.342;7.908;2022-10-31T10:45:24;15.00;99.90
48836;DHT22;62581;47.342;7.908;2022-10-31T10:48:11;15.10;99.90
48836;DHT22;62581;47.342;7.908;2022-10-31T10:50:41;15.30;99.90
48836;DHT22;62581;47.342;7.908;2022-10-31T10:53:16;15.50;99.90
48836;DHT22;62581;47.342;7.908;2022-10-31T10:55:48;15.60;99.90
48836;DHT22;62581;47.342;7.908;2022-10-31T10:58:17;15.60;99.90
48836;DHT22;62581;47.342;7.908;2022-10-31T11:00:44;15.60;99.90
48836;DHT22;62581;47.342;7.908;2022-10-31T11:03:13;15.50;99.90
48836;DHT22;62581;47.342;7.908;2022-10-31T11:05:41;15.50;99.90
48836;DHT22;62581;47.342;7.908;2022-10-31T11:08:10;15.40;99.90
48836;DHT22;62581;47.342;7.908;2022-10-31T11:10:39;15.40;99.90
48836;DHT22;62581;47.342;7.908;2022-10-31T11:13:14;15.20;99.90
48836;DHT22;62581;47.342;7.908;2022-10-31T11:15:50;15.30;99.90
48836;DHT22;62581;47.342;7.908;2022-10-31T11:18:19;15.50;99.90
48836;DHT22;62581;47.342;7.908;2022-10-31T11:20:50;15.80;99.90
48836;DHT22;62581;47.342;7.908;2022-10-31T11:23:18;16.30;99.90
48836;DHT22;62581;47.342;7.908;2022-10-31T11:25:49;16.60;99.90
48836;DHT22;62581;47.342;7.908;2022-10-31T11:28:17;16.90;99.90
48836;DHT22;62581;47.342;7.908;2022-10-31T11:30:45;17.10;99.90
48836;DHT22;62581;47.342;7.908;2022-10-31T11:33:14;17.30;99.90
48836;DHT22;62581;47.342;7.908;2022-10-31T11:35:42;17.50;99.90
48836;DHT22;62581;47.342;7.908;2022-10-31T11:38:12;17.70;99.90
48836;DHT22;62581;47.342;7.908;2022-10-31T11:40:39;17.80;99.90
48836;DHT22;62581;47.342;7.908;2022-10-31T11:43:18;18.00;99.90
48836;DHT22;62581;47.342;7.908;2022-10-31T11:45:45;18.20;99.90
48836;DHT22;62581;47.342;7.908;2022-10-31T11:48:15;18.50;99.90
48836;DHT22;62581;47.342;7.908;2022-10-31T11:50:42;18.60;99.90
48836;DHT22;62581;47.342;7.908;2022-10-31T11:53:14;18.90;99.90
48836;DHT22;62581;47.342;7.908;2022-10-31T11:55:41;19.20;99.90
48836;DHT22;62581;47.342;7.908;2022-10-31T11:58:20;19.50;99.90
48836;DHT22;62581;47.342;7.908;2022-10-31T12:00:48;19.70;99.90
48836;DHT22;62581;47.342;7.908;2022-10-31T12:03:18;19.90;99.90
48836;DHT22;62581;47.342;7.908;2022-10-31T12:05:53;20.10;99.90
48836;DHT22;62581;47.342;7.908;2022-10-31T12:08:23;20.30;99.90
48836;DHT22;62581;47.342;7.908;2022-10-31T12:10:52;20.60;99.90
48836;DHT22;62581;47.342;7.908;2022-10-31T12:13:29;20.80;99.90
48836;DHT22;62581;47.342;7.908;2022-10-31T12:15:59;20.90;99.90
48836;DHT22;62581;47.342;7.908;2022-10-31T12:18:29;21.20;99.90
48836;DHT22;62581;47.342;7.908;2022-10-31T12:21:03;21.20;99.90
48836;DHT22;62581;47.342;7.908;2022-10-31T12:23:36;21.30;99.90
48836;DHT22;62581;47.342;7.908;2022-10-31T12:26:08;21.50;99.90
48836;DHT22;62581;47.342;7.908;2022-10-31T12:28:47;21.60;99.90
48836;DHT22;62581;47.342;7.908;2022-10-31T12:31:21;21.80;99.90
48836;DHT22;62581;47.342;7.908;2022-10-31T12:33:53;22.10;99.90
48836;DHT22;62581;47.342;7.908;2022-10-31T12:36:28;22.30;99.90
48836;DHT22;62581;47.342;7.908;2022-10-31T12:39:02;22.60;99.90
48836;DHT22;62581;47.342;7.908;2022-10-31T12:41:37;23.00;99.90
48836;DHT22;62581;47.342;7.908;2022-10-31T12:44:11;23.20;99.90
48836;DHT22;62581;47.342;7.908;2022-10-31T12:46:49;23.60;99.90
48836;DHT22;62581;47.342;7.908;2022-10-31T12:49:30;23.90;99.90
48836;DHT22;62581;47.342;7.908;2022-10-31T12:52:04;24.20;99.90
48836;DHT22;62581;47.342;7.908;2022-10-31T12:54:37;24.70;99.90
48836;DHT22;62581;47.342;7.908;2022-10-31T12:57:09;25.00;99.90
48836;DHT22;62581;47.342;7.908;2022-10-31T12:59:42;25.40;99.90
48836;DHT22;62581;47.342;7.908;2022-10-31T13:02:12;25.60;99.90
48836;DHT22;62581;47.342;7.908;2022-10-31T13:04:42;25.90;99.90
48836;DHT22;62581;47.342;7.908;2022-10-31T13:07:12;26.00;99.90
48836;DHT22;62581;47.342;7.908;2022-10-31T13:09:42;26.10;99.90
48836;DHT22;62581;47.342;7.908;2022-10-31T13:12:10;26.30;99.90
48836;DHT22;62581;47.342;7.908;2022-10-31T13:14:38;26.60;99.90
48836;DHT22;62581;47.342;7.908;2022-10-31T13:17:08;26.70;99.90
48836;DHT22;62581;47.342;7.908;2022-10-31T13:19:36;26.50;99.90
48836;DHT22;62581;47.342;7.908;2022-10-31T13:22:06;26.40;99.90
48836;DHT22;62581;47.342;7.908;2022-10-31T13:24:33;26.20;99.90
48836;DHT22;62581;47.342;7.908;2022-10-31T13:27:02;26.20;99.90
48836;DHT22;62581;47.342;7.908;2022-10-31T13:29:30;26.10;99.90
48836;DHT22;62581;47.342;7.908;2022-10-31T13:31:59;25.90;99.90
48836;DHT22;62581;47.342;7.908;2022-10-31T13:34:32;25.60;99.90
48836;DHT22;62581;47.342;7.908;2022-10-31T13:37:03;25.40;99.90
48836;DHT22;62581;47.342;7.908;2022-10-31T13:39:32;25.30;99.90
48836;DHT22;62581;47.342;7.908;2022-10-31T13:42:08;25.90;99.90
48836;DHT22;62581;47.342;7.908;2022-10-31T13:44:35;26.50;99.90
48836;DHT22;62581;47.342;7.908;2022-10-31T13:47:03;27.00;99.90
48836;DHT22;62581;47.342;7.908;2022-10-31T13:49:47;27.40;99.90
48836;DHT22;62581;47.342;7.908;2022-10-31T13:52:15;27.20;99.90
48836;DHT22;62581;47.342;7.908;2022-10-31T13:54:43;26.80;99.90
48836;DHT22;62581;47.342;7.908;2022-10-31T13:57:15;26.80;99.90
48836;DHT22;62581;47.342;7.908;2022-10-31T13:59:46;26.70;99.90
48836;DHT22;62581;47.342;7.908;2022-10-31T14:02:15;26.40;99.90
48836;DHT22;62581;47.342;7.908;2022-10-31T14:04:44;26.00;99.90
48836;DHT22;62581;47.342;7.908;2022-10-31T14:07:13;26.30;99.90
48836;DHT22;62581;47.342;7.908;2022-10-31T14:09:41;27.00;99.90
48836;DHT22;62581;47.342;7.908;2022-10-31T14:12:22;27.80;99.90
48836;DHT22;62581;47.342;7.908;2022-10-31T14:14:51;28.50;98.90
48836;DHT22;62581;47.342;7.908;2022-10-31T14:17:20;29.00;97.90
48836;DHT22;62581;47.342;7.908;2022-10-31T14:19:58;29.30;97.20
48836;DHT22;62581;47.342;7.908;2022-10-31T14:22:30;29.50;96.30
48836;DHT22;62581;47.342;7.908;2022-10-31T14:24:57;29.40;95.90
48836;DHT22;62581;47.342;7.908;2022-10-31T14:27:43;29.30;95.90
48836;DHT22;62581;47.342;7.908;2022-10-31T14:30:18;29.20;95.40
48836;DHT22;62581;47.342;7.908;2022-10-31T14:32:51;28.80;95.60
48836;DHT22;62581;47.342;7.908;2022-10-31T14:35:18;28.80;95.70
48836;DHT22;62581;47.342;7.908;2022-10-31T14:37:56;29.10;95.50
48836;DHT22;62581;47.342;7.908;2022-10-31T14:40:27;29.10;95.00
48836;DHT22;62581;47.342;7.908;2022-10-31T14:43:01;29.00;95.20
48836;DHT22;62581;47.342;7.908;2022-10-31T14:45:32;29.00;95.70
48836;DHT22;62581;47.342;7.908;2022-10-31T14:48:10;29.10;95.30
48836;DHT22;62581;47.342;7.908;2022-10-31T14:50:42;29.30;94.80
48836;DHT22;62581;47.342;7.908;2022-10-31T14:53:13;29.40;94.80
48836;DHT22;62581;47.342;7.908;2022-10-31T14:55:42;29.50;94.50
48836;DHT22;62581;47.342;7.908;2022-10-31T14:58:12;29.60;94.10
48836;DHT22;62581;47.342;7.908;2022-10-31T15:00:42;29.60;94.00
48836;DHT22;62581;47.342;7.908;2022-10-31T15:03:11;29.50;93.90
48836;DHT22;62581;47.342;7.908;2022-10-31T15:05:41;29.10;94.10
48836;DHT22;62581;47.342;7.908;2022-10-31T15:08:14;28.30;95.00
48836;DHT22;62581;47.342;7.908;2022-10-31T15:10:44;27.20;96.20
48836;DHT22;62581;47.342;7.908;2022-10-31T15:13:16;26.10;97.80
48836;DHT22;62581;47.342;7.908;2022-10-31T15:15:43;25.10;99.20
48836;DHT22;62581;47.342;7.908;2022-10-31T15:18:13;24.20;99.90
48836;DHT22;62581;47.342;7.908;2022-10-31T15:20:42;23.50;99.90
48836;DHT22;62581;47.342;7.908;2022-10-31T15:23:10;23.00;99.90
48836;DHT22;62581;47.342;7.908;2022-10-31T15:25:39;22.60;99.90
48836;DHT22;62581;47.342;7.908;2022-10-31T15:28:12;22.30;99.90
48836;DHT22;62581;47.342;7.908;2022-10-31T15:30:39;22.00;99.90
48836;DHT22;62581;47.342;7.908;2022-10-31T15:33:18;21.70;99.90
48836;DHT22;62581;47.342;7.908;2022-10-31T15:35:53;21.50;99.90
48836;DHT22;62581;47.342;7.908;2022-10-31T15:38:21;21.20;99.90
48836;DHT22;62581;47.342;7.908;2022-10-31T15:40:52;20.90;99.90
48836;DHT22;62581;47.342;7.908;2022-10-31T15:43:20;20.80;99.90